Time;durP1;ratioP1;P1;durP2;ratioP2;P2;SDS_P1;SDS_P2;PMS_P1;PMS_P2;Temp;Humidity;BMP_temperature;BMP_pressure;BME280_temperature;BME280_humidity;BME280_pressure;Samples;Min_cycle;Max_cycle;Signal;HPM_P1;HPM_P2
2022/06/17 00:00:50;;;;;;;6.80;1.90;;;;;;;19.85;41.96;99589.64;25083;1313;3068880;-60
2022/06/17 00:03:22;;;;;;;4.80;2.00;;;;;;;19.69;43.00;99587.11;25061;1313;3026175;-58
2022/06/17 00:05:52;;;;;;;4.90;1.80;;;;;;;19.71;42.63;99587.06;25077;1313;3026693;-60
2022/06/17 00:08:34;;;;;;;6.40;2.10;;;;;;;19.65;42.79;99583.37;25136;1316;3026606;-59
2022/06/17 00:11:09;;;;;;;5.10;2.20;;;;;;;19.69;42.59;99583.08;25072;1316;3057051;-59
2022/06/17 00:13:38;;;;;;;3.40;1.90;;;;;;;19.71;42.52;99584.56;25030;1316;3052395;-59
2022/06/17 00:16:12;;;;;;;4.30;1.90;;;;;;;19.70;42.94;99582.19;25093;1313;3026244;-59
2022/06/17 00:18:42;;;;;;;5.90;2.80;;;;;;;19.67;43.16;99580.08;25058;1313;3051079;-59
2022/06/17 00:21:34;;;;;;;7.00;2.20;;;;;;;19.69;42.74;99582.32;25063;1315;3026223;-61
2022/06/17 00:24:26;;;;;;;5.10;2.10;;;;;;;19.78;42.24;99579.27;25045;1316;3052220;-58
2022/06/17 00:26:56;;;;;;;5.90;2.80;;;;;;;19.87;41.88;99577.58;25032;1315;3054375;-59
2022/06/17 00:29:27;;;;;;;13.00;4.00;;;;;;;19.98;41.67;99582.23;25087;1313;3026467;-58
2022/06/17 00:31:57;;;;;;;9.10;5.00;;;;;;;20.05;41.68;99584.41;25077;1313;3051845;-58
2022/06/17 00:34:26;;;;;;;12.90;5.40;;;;;;;20.03;41.89;99579.43;25057;1315;3026790;-59
2022/06/17 00:36:56;;;;;;;6.00;3.50;;;;;;;20.02;41.90;99577.17;25106;1313;3027063;-58
2022/06/17 00:39:27;;;;;;;7.50;3.60;;;;;;;20.02;42.21;99579.19;25087;1313;3049508;-59
2022/06/17 00:42:18;;;;;;;5.80;3.10;;;;;;;20.05;42.07;99577.81;25098;1313;3026269;-58
2022/06/17 00:45:02;;;;;;;8.70;4.00;;;;;;;20.10;41.83;99577.48;25094;1313;3052481;-59
2022/06/17 00:47:42;;;;;;;9.70;3.90;;;;;;;20.10;41.81;99576.98;25038;1313;3057524;-59
2022/06/17 00:50:42;;;;;;;6.10;2.80;;;;;;;20.06;42.20;99574.30;25087;1313;3052865;-59
2022/06/17 00:53:19;;;;;;;10.90;2.90;;;;;;;20.02;42.49;99577.39;25032;1319;3052875;-57
2022/06/17 00:55:57;;;;;;;16.40;4.70;;;;;;;19.95;43.52;99577.69;25105;1316;3051348;-59
2022/06/17 00:58:32;;;;;;;14.80;4.90;;;;;;;19.91;44.04;99579.71;25069;1316;3071239;-59
2022/06/17 01:01:03;;;;;;;27.00;6.10;;;;;;;19.86;43.91;99580.89;25053;1312;3051703;-59
2022/06/17 01:03:34;;;;;;;14.40;5.00;;;;;;;19.67;44.88;99576.52;25050;1315;3026480;-58
2022/06/17 01:06:15;;;;;;;20.00;5.60;;;;;;;19.66;44.82;99572.02;25056;1316;3055473;-59
2022/06/17 01:11:40;;;;;;;17.20;3.90;;;;;;;19.64;43.94;99573.39;25102;1313;3052072;-59
2022/06/17 01:14:11;;;;;;;12.60;3.40;;;;;;;19.67;43.74;99571.16;25053;1313;3026356;-58
2022/06/17 01:16:42;;;;;;;17.60;4.10;;;;;;;19.75;43.45;99571.09;25084;1313;3056356;-58
2022/06/17 01:19:26;;;;;;;13.60;3.50;;;;;;;19.81;42.99;99566.61;25088;1313;3048895;-58
2022/06/17 01:22:27;;;;;;;9.50;3.60;;;;;;;19.91;42.67;99568.31;25089;1316;3055003;-59
2022/06/17 01:25:05;;;;;;;16.80;4.10;;;;;;;19.95;42.80;99566.29;25032;1313;3053256;-60
2022/06/17 01:27:44;;;;;;;8.70;3.90;;;;;;;19.94;42.54;99565.35;25034;1313;3071011;-59
2022/06/17 01:30:22;;;;;;;11.20;3.80;;;;;;;19.99;42.71;99561.30;25040;1316;3049359;-57
2022/06/17 01:32:58;;;;;;;16.10;5.60;;;;;;;20.04;42.53;99559.27;25112;1313;3054652;-58
2022/06/17 01:35:30;;;;;;;14.70;5.80;;;;;;;20.02;42.31;99563.66;25087;1313;3055103;-58
2022/06/17 01:37:59;;;;;;;11.40;4.60;;;;;;;19.86;42.90;99567.16;25077;1315;3027540;-59
2022/06/17 01:40:30;;;;;;;22.80;5.10;;;;;;;19.82;43.66;99567.29;25044;1316;3027514;-59
2022/06/17 01:43:01;;;;;;;21.50;6.60;;;;;;;19.76;43.95;99566.33;25171;1313;3026498;-60
2022/06/17 01:45:33;;;;;;;16.30;6.60;;;;;;;19.74;43.93;99564.39;24981;1315;3056844;-59
2022/06/17 01:48:03;;;;;;;16.10;5.30;;;;;;;19.68;44.63;99565.77;25035;1316;3026665;-59
2022/06/17 01:50:33;;;;;;;19.40;6.10;;;;;;;19.66;44.45;99567.52;25106;1316;3027564;-59
2022/06/17 01:53:05;;;;;;;20.30;5.20;;;;;;;19.57;44.73;99561.98;25047;1313;3026576;-59
2022/06/17 01:55:36;;;;;;;23.70;4.80;;;;;;;19.57;44.53;99564.80;25059;1315;3049753;-59
2022/06/17 01:58:09;;;;;;;10.00;3.60;;;;;;;19.57;43.98;99558.62;25047;1315;3026365;-59
2022/06/17 02:00:41;;;;;;;6.30;2.90;;;;;;;19.60;43.38;99560.26;25073;1313;3051093;-59
2022/06/17 02:03:19;;;;;;;10.40;2.80;;;;;;;19.66;42.78;99560.27;25070;1313;3026674;-60
2022/06/17 02:05:51;;;;;;;12.90;3.10;;;;;;;19.73;42.72;99560.63;25055;1313;3052927;-58
2022/06/17 02:08:21;;;;;;;11.70;3.10;;;;;;;19.76;42.62;99562.07;25124;1313;3026795;-59
2022/06/17 02:10:51;;;;;;;8.40;2.90;;;;;;;19.78;42.43;99565.49;25058;1313;3027023;-59
2022/06/17 02:13:21;;;;;;;11.10;2.80;;;;;;;19.77;42.53;99562.91;25083;1313;3048423;-59
2022/06/17 02:16:05;;;;;;;10.80;2.80;;;;;;;19.76;42.09;99565.25;25077;1316;3054840;-59
2022/06/17 02:18:55;;;;;;;11.20;2.50;;;;;;;19.85;41.97;99570.66;25001;1313;3054489;-58
2022/06/17 02:21:32;;;;;;;9.00;2.30;;;;;;;19.93;41.63;99572.52;25098;1316;3026954;-59
2022/06/17 02:24:02;;;;;;;6.20;2.40;;;;;;;19.97;41.70;99564.52;25062;1313;3049261;-58
2022/06/17 02:26:33;;;;;;;5.70;2.70;;;;;;;19.99;41.75;99567.50;25061;1316;3026170;-59
2022/06/17 02:29:04;;;;;;;7.50;2.60;;;;;;;20.02;41.54;99564.20;25066;1313;3027117;-58
2022/06/17 02:31:34;;;;;;;9.80;2.60;;;;;;;20.03;41.53;99566.79;25049;1313;3028944;-59
2022/06/17 02:34:04;;;;;;;6.30;2.00;;;;;;;20.03;41.69;99566.44;25092;1313;3026651;-59
2022/06/17 02:36:52;;;;;;;11.10;2.80;;;;;;;20.04;41.80;99564.41;25119;1313;3026690;-58
2022/06/17 02:39:21;;;;;;;10.20;1.70;;;;;;;20.05;41.90;99568.21;25097;1313;3055513;-59
2022/06/17 02:41:50;;;;;;;9.30;2.00;;;;;;;20.04;41.96;99564.75;25041;1313;3026021;-58
2022/06/17 02:44:32;;;;;;;6.00;2.10;;;;;;;20.05;41.95;99568.19;25059;1313;3054480;-59
2022/06/17 02:47:03;;;;;;;5.00;2.50;;;;;;;20.09;42.32;99570.29;25067;1319;3054947;-58
2022/06/17 02:49:34;;;;;;;7.90;2.20;;;;;;;20.10;42.12;99569.14;25126;1313;3026631;-60
2022/06/17 02:52:30;;;;;;;8.50;2.10;;;;;;;20.11;42.12;99568.64;25043;1313;3026719;-59
2022/06/17 02:55:01;;;;;;;3.20;1.90;;;;;;;20.13;42.38;99565.44;25056;1313;3053816;-59
2022/06/17 02:57:31;;;;;;;8.00;2.30;;;;;;;20.11;42.21;99560.88;25068;1315;3026725;-59
2022/06/17 03:00:00;;;;;;;8.00;2.20;;;;;;;20.10;42.36;99564.44;25068;1316;3026342;-58
2022/06/17 03:02:36;;;;;;;6.60;2.20;;;;;;;20.08;42.54;99562.05;25114;1314;3027233;-59
2022/06/17 03:05:24;;;;;;;7.70;2.30;;;;;;;20.14;42.13;99562.89;25077;1316;3054598;-60
2022/06/17 03:07:54;;;;;;;9.10;2.40;;;;;;;20.16;42.14;99560.70;25078;1313;3052219;-58
2022/06/17 03:10:29;;;;;;;10.30;2.70;;;;;;;20.20;42.08;99559.20;25093;1313;3027054;-59
2022/06/17 03:13:13;;;;;;;7.50;2.40;;;;;;;20.20;42.08;99559.39;25031;1313;3051945;-58
2022/06/17 03:15:45;;;;;;;8.30;2.70;;;;;;;20.22;42.08;99563.14;25033;1316;3053142;-59
2022/06/17 03:18:15;;;;;;;6.20;2.50;;;;;;;20.25;41.89;99562.70;25066;1313;3028170;-58
2022/06/17 03:20:46;;;;;;;10.10;3.40;;;;;;;20.25;42.04;99565.14;25078;1315;3026266;-59
2022/06/17 03:23:21;;;;;;;9.40;2.80;;;;;;;20.21;42.18;99562.94;25082;1313;3027593;-60
2022/06/17 03:25:56;;;;;;;7.50;2.40;;;;;;;20.22;42.41;99562.72;25015;1313;3054592;-59
2022/06/17 03:28:30;;;;;;;10.50;3.00;;;;;;;20.24;42.13;99560.40;25059;1316;3052489;-59
2022/06/17 03:31:02;;;;;;;10.70;3.00;;;;;;;20.24;42.08;99563.83;25100;1315;3057987;-58
2022/06/17 03:33:45;;;;;;;9.90;2.90;;;;;;;20.20;42.14;99560.63;25085;1313;3052750;-60
2022/06/17 03:36:16;;;;;;;11.70;2.80;;;;;;;20.24;42.15;99558.80;25074;1315;3056157;-59
2022/06/17 03:39:26;;;;;;;8.90;3.20;;;;;;;20.32;41.95;99557.56;25091;1316;3026594;-60
2022/06/17 03:42:08;;;;;;;6.90;2.40;;;;;;;20.36;41.85;99559.63;25003;1319;3071436;-58
2022/06/17 03:45:04;;;;;;;5.80;2.90;;;;;;;20.44;42.19;99559.89;25046;1316;3051329;-59
2022/06/17 03:48:06;;;;;;;9.00;2.70;;;;;;;20.49;41.99;99563.84;25153;1313;3051849;-59
2022/06/17 03:50:38;;;;;;;9.10;2.50;;;;;;;20.51;42.34;99561.84;25003;1313;3053865;-59
2022/06/17 03:53:26;;;;;;;11.90;3.30;;;;;;;20.52;42.19;99562.42;25027;1313;3058256;-60
2022/06/17 03:56:07;;;;;;;12.10;2.80;;;;;;;20.50;42.41;99559.84;25081;1313;3049373;-58
2022/06/17 03:58:40;;;;;;;14.00;3.10;;;;;;;20.58;42.14;99565.01;25035;1313;3054642;-60
2022/06/17 04:01:17;;;;;;;7.80;2.60;;;;;;;20.64;42.38;99562.98;25085;1313;3026514;-58
2022/06/17 04:03:53;;;;;;;6.50;2.50;;;;;;;20.72;41.98;99550.88;25133;1313;3069545;-59
2022/06/17 04:06:28;;;;;;;8.30;3.10;;;;;;;20.80;42.16;99551.64;25062;1313;3026199;-59
2022/06/17 04:09:06;;;;;;;4.30;1.90;;;;;;;20.86;41.74;99551.61;25050;1313;3052653;-60
2022/06/17 04:11:38;;;;;;;6.60;2.20;;;;;;;20.84;41.19;99549.65;25093;1316;3055229;-60
2022/06/17 04:14:24;;;;;;;5.10;2.40;;;;;;;20.87;40.93;99550.61;25126;1313;3026599;-59
2022/06/17 04:16:55;;;;;;;6.70;2.10;;;;;;;20.92;40.95;99546.17;25081;1316;3052304;-59
2022/06/17 04:19:26;;;;;;;4.60;2.10;;;;;;;20.96;41.08;99551.03;25084;1312;3026155;-60
2022/06/17 04:22:02;;;;;;;6.90;2.40;;;;;;;20.93;41.24;99553.13;25116;1316;3050357;-59
2022/06/17 04:24:37;;;;;;;8.90;2.60;;;;;;;20.91;41.06;99548.80;25077;1313;3071765;-59
2022/06/17 04:27:21;;;;;;;;;;;;;;;21.01;41.09;99547.38;25091;1313;3048900;-59
2022/06/17 04:29:51;;;;;;;9.60;1.80;;;;;;;21.06;40.60;99548.66;25074;1313;3026501;-58
2022/06/17 04:32:28;;;;;;;5.60;1.90;;;;;;;21.10;40.89;99549.33;25097;1312;3068897;-61
2022/06/17 04:34:58;;;;;;;8.70;2.00;;;;;;;21.15;40.30;99548.59;25082;1313;3049410;-58
2022/06/17 04:37:27;;;;;;;4.50;2.00;;;;;;;21.24;40.30;99550.51;25137;1313;3027108;-59
2022/06/17 04:40:23;;;;;;;5.50;1.80;;;;;;;21.32;39.72;99549.90;25065;1313;3055698;-59
2022/06/17 04:43:24;;;;;;;7.00;2.20;;;;;;;21.40;39.96;99548.34;25078;1313;3059319;-61
2022/06/17 04:46:00;;;;;;;13.70;3.20;;;;;;;21.50;39.96;99547.86;25038;1313;3052625;-60
2022/06/17 04:48:29;;;;;;;9.10;2.80;;;;;;;21.57;40.10;99552.04;25097;1313;3053105;-58
2022/06/17 04:51:00;;;;;;;5.60;2.70;;;;;;;21.64;39.90;99549.98;25036;1313;3026609;-59
2022/06/17 04:53:30;;;;;;;10.50;3.00;;;;;;;21.76;39.88;99552.92;25105;1313;3026945;-61
2022/06/17 04:56:39;;;;;;;7.40;3.30;;;;;;;21.86;40.10;99554.58;25037;1313;3051501;-59
2022/06/17 04:59:34;;;;;;;8.20;2.70;;;;;;;21.92;39.66;99558.44;25074;1313;3052688;-60
2022/06/17 05:02:25;;;;;;;9.70;3.20;;;;;;;21.93;40.30;99558.77;25073;1313;3052084;-59
2022/06/17 05:05:32;;;;;;;7.50;2.80;;;;;;;21.97;40.74;99553.10;25099;1313;3059041;-60
2022/06/17 05:08:02;;;;;;;11.40;3.00;;;;;;;21.93;40.04;99556.27;25063;1313;3052784;-60
2022/06/17 05:10:39;;;;;;;14.70;2.90;;;;;;;22.01;39.75;99552.49;25075;1313;3055148;-59
2022/06/17 05:13:19;;;;;;;7.10;3.10;;;;;;;22.03;39.69;99556.67;25132;1313;3026677;-60
2022/06/17 05:15:50;;;;;;;5.60;2.30;;;;;;;22.15;39.59;99557.66;25050;1313;3071038;-59
2022/06/17 05:18:21;;;;;;;6.50;2.40;;;;;;;22.30;39.25;99558.90;25059;1316;3027127;-60
2022/06/17 05:20:52;;;;;;;10.20;2.40;;;;;;;22.46;39.01;99559.98;25050;1313;3027441;-60
2022/06/17 05:23:22;;;;;;;8.50;2.50;;;;;;;22.53;38.64;99555.22;25055;1313;3026934;-60
2022/06/17 05:25:53;;;;;;;7.70;2.60;;;;;;;22.58;38.24;99554.39;25086;1316;3026208;-60
2022/06/17 05:28:23;;;;;;;7.00;2.10;;;;;;;22.62;37.54;99560.13;25092;1313;3026427;-59
2022/06/17 05:30:59;;;;;;;10.00;2.60;;;;;;;22.54;37.32;99559.23;25140;1313;3056067;-61
2022/06/17 05:33:39;;;;;;;3.70;1.90;;;;;;;22.48;37.13;99560.31;24976;1316;3054383;-61
2022/06/17 05:36:09;;;;;;;6.40;2.10;;;;;;;22.36;37.18;99557.95;25100;1313;3026703;-60
2022/06/17 05:38:38;;;;;;;5.70;2.40;;;;;;;22.47;37.39;99556.63;25123;1313;3027041;-60
2022/06/17 05:41:17;;;;;;;7.00;2.50;;;;;;;22.54;37.54;99551.98;25116;1313;3026940;-60
2022/06/17 05:43:48;;;;;;;5.30;2.30;;;;;;;22.62;37.31;99549.75;25156;1313;3054135;-61
2022/06/17 05:46:31;;;;;;;7.20;2.50;;;;;;;22.65;37.58;99552.02;25097;1313;3056915;-61
2022/06/17 05:49:20;;;;;;;9.60;2.70;;;;;;;22.64;37.78;99551.39;25049;1313;3052208;-60
2022/06/17 05:52:01;;;;;;;6.00;2.30;;;;;;;22.61;37.07;99552.31;25140;1313;3053349;-59
2022/06/17 05:54:59;;;;;;;8.10;2.50;;;;;;;22.65;36.49;99551.30;25069;1316;3054172;-60
2022/06/17 05:57:28;;;;;;;7.20;2.00;;;;;;;22.63;36.46;99558.45;25024;1313;3071143;-59
2022/06/17 05:59:57;;;;;;;10.80;2.30;;;;;;;22.76;36.79;99549.88;25117;1313;3026740;-61
2022/06/17 06:02:27;;;;;;;9.50;2.30;;;;;;;22.84;36.54;99556.45;25105;1313;3026415;-60
2022/06/17 06:05:05;;;;;;;14.80;2.90;;;;;;;22.95;37.27;99550.83;25102;1313;3054812;-59
2022/06/17 06:07:37;;;;;;;10.70;2.80;;;;;;;23.00;37.56;99550.79;25071;1313;3056464;-60
2022/06/17 06:10:08;;;;;;;10.00;2.70;;;;;;;23.00;37.79;99550.48;25098;1316;3027062;-61
2022/06/17 06:12:53;;;;;;;4.70;2.40;;;;;;;23.03;37.21;99549.73;25060;1313;3054787;-61
2022/06/17 06:15:39;;;;;;;6.30;2.60;;;;;;;23.17;37.11;99546.81;25085;1315;3059080;-59
2022/06/17 06:18:23;;;;;;;7.90;2.90;;;;;;;23.23;37.05;99541.33;25051;1313;3049435;-60
2022/06/17 06:20:55;;;;;;;10.60;3.40;;;;;;;23.15;37.61;99541.27;25107;1313;3055175;-60
2022/06/17 06:23:26;;;;;;;12.80;4.00;;;;;;;23.18;37.28;99539.52;25064;1313;3026129;-60
2022/06/17 06:25:56;;;;;;;10.20;3.80;;;;;;;23.18;37.08;99538.54;25057;1313;3026543;-59
2022/06/17 06:28:26;;;;;;;10.90;3.40;;;;;;;23.24;37.14;99536.33;25049;1313;3027455;-59
2022/06/17 06:31:29;;;;;;;10.50;3.80;;;;;;;23.31;36.47;99534.16;25151;1313;3055063;-59
2022/06/17 06:34:00;;;;;;;11.00;3.10;;;;;;;23.31;36.13;99536.46;25081;1313;3052236;-60
2022/06/17 06:36:32;;;;;;;7.80;2.20;;;;;;;23.41;35.53;99537.56;25093;1313;3026400;-61
2022/06/17 06:39:02;;;;;;;9.00;2.60;;;;;;;23.45;34.12;99533.14;25085;1313;3028554;-59
2022/06/17 06:41:32;;;;;;;7.90;2.60;;;;;;;23.44;34.16;99526.92;25072;1313;3026993;-60
2022/06/17 06:44:01;;;;;;;9.20;1.90;;;;;;;23.35;34.56;99530.16;25097;1313;3026287;-60
2022/06/17 06:46:49;;;;;;;5.80;2.10;;;;;;;23.42;34.09;99521.27;25077;1313;3071409;-60
2022/06/17 06:49:30;;;;;;;4.60;2.20;;;;;;;23.50;33.73;99518.99;25052;1313;3051684;-60
2022/06/17 06:51:59;;;;;;;7.60;2.60;;;;;;;23.52;34.85;99520.52;25079;1315;3029744;-60
2022/06/17 06:54:28;;;;;;;7.00;2.30;;;;;;;23.58;34.26;99518.08;25033;1313;3070343;-60
2022/06/17 06:56:59;;;;;;;8.60;2.10;;;;;;;23.52;33.74;99518.14;25090;1313;3027078;-60
2022/06/17 06:59:29;;;;;;;8.60;1.80;;;;;;;23.59;33.18;99516.66;25078;1313;3053583;-60
2022/06/17 07:01:59;;;;;;;8.80;2.00;;;;;;;23.71;32.98;99515.69;25128;1313;3027013;-59
2022/06/17 07:04:28;;;;;;;3.80;1.60;;;;;;;23.72;31.87;99511.60;25103;1316;3027251;-62
2022/06/17 07:06:57;;;;;;;5.50;1.80;;;;;;;23.78;32.56;99512.69;25149;1315;3026603;-60
2022/06/17 07:09:27;;;;;;;6.10;2.10;;;;;;;23.87;32.79;99507.73;25136;1313;3069885;-62
2022/06/17 07:11:56;;;;;;;9.60;2.00;;;;;;;23.94;33.00;99511.03;25199;1313;3026741;-62
2022/06/17 07:14:25;;;;;;;10.50;2.40;;;;;;;24.00;33.34;99512.16;25110;1313;3053315;-61
2022/06/17 07:16:54;;;;;;;6.10;2.00;;;;;;;24.00;33.33;99511.27;25107;1314;3026653;-59
2022/06/17 07:19:23;;;;;;;5.10;1.70;;;;;;;23.93;32.46;99513.98;25112;1313;3055225;-60
2022/06/17 07:21:52;;;;;;;5.80;1.90;;;;;;;23.99;31.84;99505.07;25043;1313;3026784;-61
2022/06/17 07:24:23;;;;;;;8.20;1.90;;;;;;;24.05;31.88;99510.89;25061;1316;3050943;-60
2022/06/17 07:26:53;;;;;;;9.20;2.20;;;;;;;24.09;31.45;99511.13;25116;1312;3027589;-60
2022/06/17 07:29:22;;;;;;;8.60;2.30;;;;;;;24.24;31.39;99504.56;25052;1312;3026830;-60
2022/06/17 07:31:51;;;;;;;6.10;2.10;;;;;;;24.24;31.51;99502.54;25080;1313;3051589;-59
2022/06/17 07:34:20;;;;;;;6.80;1.90;;;;;;;24.42;31.36;99498.48;25059;1313;3026518;-62
2022/06/17 07:39:55;;;;;;;4.20;2.00;;;;;;;24.64;31.60;99498.20;25090;1316;3054361;-59
2022/06/17 07:42:37;;;;;;;5.60;2.10;;;;;;;24.65;30.82;99501.17;25180;1313;3056172;-61
2022/06/17 07:45:09;;;;;;;4.50;1.90;;;;;;;24.65;30.05;99500.61;25042;1312;3051822;-60
2022/06/17 07:47:39;;;;;;;4.70;1.90;;;;;;;24.75;30.24;99498.56;25061;1313;3026577;-60
2022/06/17 07:50:12;;;;;;;10.30;2.70;;;;;;;24.88;30.18;99487.13;25057;1313;3026186;-60
2022/06/17 07:52:41;;;;;;;6.30;2.50;;;;;;;24.81;29.95;99487.65;25242;1312;3030184;-61
2022/06/17 07:55:10;;;;;;;5.20;2.30;;;;;;;24.75;29.63;99489.06;25083;1313;3026631;-61
2022/06/17 07:57:41;;;;;;;12.00;2.00;;;;;;;24.87;29.59;99482.45;25086;1313;3050785;-62
2022/06/17 08:00:42;;;;;;;5.00;2.10;;;;;;;25.13;29.03;99483.40;25073;1313;3026667;-62
2022/06/17 08:03:13;;;;;;;6.00;1.80;;;;;;;25.26;28.93;99477.62;25051;1316;3054556;-61
2022/06/17 08:05:48;;;;;;;7.40;1.90;;;;;;;25.35;29.20;99477.36;25119;1313;3057606;-58
2022/06/17 08:08:24;;;;;;;4.10;1.70;;;;;;;25.36;28.81;99476.80;25066;1316;3026592;-62
2022/06/17 08:10:58;;;;;;;5.30;1.90;;;;;;;25.43;28.05;99477.29;25124;1312;3052269;-60
2022/06/17 08:13:28;;;;;;;3.90;1.80;;;;;;;25.56;27.80;99480.26;25074;1313;3050862;-60
2022/06/17 08:16:08;;;;;;;5.20;1.80;;;;;;;25.63;27.67;99480.98;25058;1313;3069839;-61
2022/06/17 08:18:38;;;;;;;7.10;1.90;;;;;;;25.78;27.47;99477.20;25077;1313;3051018;-61
2022/06/17 08:21:09;;;;;;;5.00;1.70;;;;;;;25.83;27.80;99479.66;25055;1313;3026407;-65
2022/06/17 08:23:40;;;;;;;7.80;1.60;;;;;;;25.76;28.00;99477.48;25044;1316;3026837;-61
2022/06/17 08:26:10;;;;;;;10.90;2.10;;;;;;;26.01;27.67;99475.24;25044;1315;3027622;-59
2022/06/17 08:28:39;;;;;;;5.50;1.80;;;;;;;26.07;26.99;99471.66;25110;1313;3026995;-59
2022/06/17 08:31:08;;;;;;;6.90;2.00;;;;;;;26.16;27.47;99477.33;25048;1313;3054752;-60
2022/06/17 08:33:37;;;;;;;5.00;1.70;;;;;;;26.34;26.89;99475.60;25084;1312;3027499;-59
2022/06/17 08:36:12;;;;;;;8.40;1.90;;;;;;;26.44;26.71;99475.88;25073;1313;3026504;-59
2022/06/17 08:38:50;;;;;;;8.80;2.10;;;;;;;26.18;26.59;99472.30;25061;1316;3053479;-59
2022/06/17 08:41:36;;;;;;;4.90;2.00;;;;;;;26.25;26.24;99474.21;25123;1313;3056404;-60
2022/06/17 08:44:46;;;;;;;5.20;2.10;;;;;;;26.22;26.14;99474.84;25055;1312;3052789;-60
2022/06/17 08:47:37;;;;;;;7.00;2.10;;;;;;;26.36;26.50;99474.50;25064;1313;3054592;-59
2022/06/17 08:50:34;;;;;;;9.10;2.10;;;;;;;26.66;26.43;99472.23;25119;1314;3054329;-59
2022/06/17 08:53:15;;;;;;;6.30;2.00;;;;;;;26.63;26.11;99469.43;25194;1316;3070712;-60
2022/06/17 08:55:57;;;;;;;5.70;1.60;;;;;;;26.75;26.10;99466.41;25117;1313;3051634;-61
2022/06/17 08:58:44;;;;;;;6.80;1.60;;;;;;;26.91;25.37;99463.92;25130;1313;3052077;-59
2022/06/17 09:01:25;;;;;;;6.00;2.10;;;;;;;26.82;25.64;99466.15;25118;1313;3052967;-60
2022/06/17 09:04:07;;;;;;;7.30;1.60;;;;;;;26.88;25.55;99469.34;25090;1313;3058533;-58
2022/06/17 09:06:59;;;;;;;3.00;1.70;;;;;;;27.02;25.17;99469.07;25118;1313;3050372;-59
2022/06/17 09:09:44;;;;;;;7.00;2.30;;;;;;;27.29;25.22;99469.94;25047;1316;3055823;-60
2022/06/17 09:12:36;;;;;;;5.60;2.00;;;;;;;27.36;25.12;99469.88;25121;1316;3053955;-60
2022/06/17 09:15:39;;;;;;;7.10;2.80;;;;;;;26.89;25.13;99469.52;25079;1313;3071658;-62
2022/06/17 09:18:16;;;;;;;6.10;1.90;;;;;;;26.61;25.88;99472.39;25042;1313;3052912;-61
2022/06/17 09:20:48;;;;;;;5.10;2.00;;;;;;;26.62;25.07;99470.73;25073;1313;3026382;-62
2022/06/17 09:23:20;;;;;;;6.20;2.40;;;;;;;26.79;25.16;99460.00;25102;1316;3026477;-60
2022/06/17 09:25:49;;;;;;;8.50;2.70;;;;;;;27.00;25.13;99459.64;25106;1313;3026904;-61
2022/06/17 09:28:38;;;;;;;6.10;3.00;;;;;;;26.88;25.13;99461.17;25024;1316;3027605;-62
2022/06/17 09:31:20;;;;;;;5.00;2.60;;;;;;;26.70;25.44;99465.05;25096;1313;3053400;-62
2022/06/17 09:33:52;;;;;;;8.20;2.60;;;;;;;26.52;25.97;99460.14;25094;1316;3051012;-61
2022/06/17 09:36:30;;;;;;;5.70;2.60;;;;;;;26.32;25.89;99461.38;25059;1316;3030299;-64
2022/06/17 09:39:12;;;;;;;5.40;1.90;;;;;;;26.27;25.84;99457.86;25121;1313;3049535;-62
2022/06/17 09:41:57;;;;;;;5.20;2.30;;;;;;;26.21;26.10;99455.92;25115;1313;3055494;-63
2022/06/17 09:44:35;;;;;;;7.10;2.90;;;;;;;26.55;26.01;99453.88;25097;1313;3055283;-62
2022/06/17 09:47:29;;;;;;;10.40;2.60;;;;;;;26.93;25.86;99449.84;25100;1313;3056700;-63
2022/06/17 09:50:07;;;;;;;7.10;2.30;;;;;;;27.03;25.50;99452.07;25052;1313;3050148;-60
2022/06/17 09:52:42;;;;;;;9.60;2.80;;;;;;;27.13;25.21;99451.12;25066;1313;3053751;-61
2022/06/17 09:55:15;;;;;;;7.70;2.90;;;;;;;27.26;25.22;99447.80;25110;1313;3051823;-61
2022/06/17 09:57:50;;;;;;;5.70;2.40;;;;;;;27.37;25.23;99450.89;25105;1313;3069321;-61
2022/06/17 10:00:22;;;;;;;6.30;2.40;;;;;;;27.50;25.18;99452.83;25086;1313;3051219;-59
2022/06/17 10:02:55;;;;;;;4.40;2.60;;;;;;;27.19;24.71;99457.31;25120;1316;3026624;-61
2022/06/17 10:05:37;;;;;;;7.80;2.80;;;;;;;26.97;24.52;99458.14;25134;1312;3029848;-62
2022/06/17 10:08:12;;;;;;;7.40;2.40;;;;;;;26.93;24.31;99451.59;25111;1313;3058927;-60
2022/06/17 10:11:11;;;;;;;4.00;2.20;;;;;;;27.02;24.39;99448.92;25094;1313;3052704;-62
2022/06/17 10:14:04;;;;;;;8.60;2.30;;;;;;;27.03;24.67;99450.42;25069;1315;3056129;-60
2022/06/17 10:20:03;;;;;;;7.80;3.10;;;;;;;26.91;24.73;99445.55;25042;1313;3071095;-63
2022/06/17 10:22:59;;;;;;;7.40;2.60;;;;;;;26.75;25.18;99450.73;25079;1313;3049772;-60
2022/06/17 10:25:50;;;;;;;7.60;2.30;;;;;;;26.85;24.89;99446.39;24990;1313;3054840;-60
2022/06/17 10:28:42;;;;;;;4.20;2.50;;;;;;;26.82;24.45;99444.35;25088;1313;3053908;-62
2022/06/17 10:31:18;;;;;;;8.40;2.70;;;;;;;26.97;25.27;99445.34;25046;1315;3059073;-60
2022/06/17 10:33:47;;;;;;;7.90;2.50;;;;;;;26.86;25.69;99445.77;25052;1313;3054420;-63
2022/06/17 10:36:17;;;;;;;9.40;2.90;;;;;;;26.86;25.75;99443.88;25058;1313;3026969;-60
2022/06/17 10:38:47;;;;;;;8.70;3.00;;;;;;;26.98;25.76;99439.58;25075;1316;3059481;-61
2022/06/17 10:41:16;;;;;;;7.90;2.90;;;;;;;26.96;26.37;99439.48;25024;1315;3026932;-60
2022/06/17 10:43:49;;;;;;;8.50;3.20;;;;;;;26.93;26.34;99436.27;25029;1313;3026143;-60
2022/06/17 10:46:22;;;;;;;4.30;2.30;;;;;;;26.73;25.91;99443.71;25067;1313;3027019;-58
2022/06/17 10:48:55;;;;;;;7.10;2.50;;;;;;;27.24;25.05;99437.10;25078;1313;3069624;-61
2022/06/17 10:51:24;;;;;;;4.50;2.20;;;;;;;27.65;24.08;99436.09;25094;1313;3026621;-61
2022/06/17 10:53:58;;;;;;;3.80;1.70;;;;;;;28.01;23.44;99425.46;25044;1319;3026876;-61
2022/06/17 10:56:40;;;;;;;4.30;2.10;;;;;;;28.10;22.87;99428.26;25061;1313;3071743;-63
2022/06/17 10:59:10;;;;;;;4.80;2.00;;;;;;;28.19;22.51;99416.66;25108;1313;3049074;-60
2022/06/17 11:01:45;;;;;;;7.30;2.20;;;;;;;28.24;23.12;99406.14;25065;1313;3028409;-62
2022/06/17 11:04:26;;;;;;;4.30;1.80;;;;;;;28.46;23.12;99401.56;25051;1316;3055222;-62
2022/06/17 11:06:58;;;;;;;5.10;1.90;;;;;;;28.56;22.93;99402.61;25121;1313;3056913;-61
2022/06/17 11:09:37;;;;;;;2.60;1.60;;;;;;;28.56;22.94;99402.54;25090;1313;3026266;-60
2022/06/17 11:12:19;;;;;;;4.90;1.60;;;;;;;28.67;22.70;99404.68;25068;1313;3056026;-60
2022/06/17 11:14:54;;;;;;;5.50;1.70;;;;;;;28.46;22.88;99403.94;25064;1316;3053613;-61
2022/06/17 11:17:30;;;;;;;2.60;1.50;;;;;;;28.32;22.69;99401.94;25112;1313;3069404;-59
2022/06/17 11:20:03;;;;;;;3.50;1.60;;;;;;;28.20;22.70;99403.33;25108;1313;3049357;-61
2022/06/17 11:22:36;;;;;;;3.80;1.40;;;;;;;28.16;22.67;99406.03;25088;1313;3054894;-61
2022/06/17 11:25:20;;;;;;;3.20;1.60;;;;;;;27.92;22.77;99398.82;25111;1313;3026547;-60
2022/06/17 11:27:53;;;;;;;5.90;1.90;;;;;;;27.85;23.29;99397.20;25061;1313;3059431;-60
2022/06/17 11:30:27;;;;;;;4.70;1.60;;;;;;;27.74;23.59;99399.29;25090;1313;3026400;-60
2022/06/17 11:32:57;;;;;;;7.40;1.20;;;;;;;27.77;23.32;99397.91;25100;1313;3052763;-61
2022/06/17 11:35:29;;;;;;;3.40;1.40;;;;;;;27.71;23.37;99394.63;25101;1313;3026575;-61
2022/06/17 11:38:00;;;;;;;5.00;1.70;;;;;;;27.51;23.86;99395.48;25041;1318;3027395;-60
2022/06/17 11:40:32;;;;;;;4.20;1.80;;;;;;;27.44;24.20;99391.20;25117;1313;3026303;-60
2022/06/17 11:43:04;;;;;;;5.70;1.10;;;;;;;27.41;24.22;99391.48;25119;1313;3026649;-60
2022/06/17 11:45:44;;;;;;;3.80;1.10;;;;;;;27.53;23.70;99395.73;25026;1318;3026904;-60
2022/06/17 11:48:35;;;;;;;4.80;1.30;;;;;;;27.54;23.60;99390.42;25020;1316;3057463;-62
2022/06/17 11:51:08;;;;;;;5.20;1.50;;;;;;;27.39;23.48;99396.20;25086;1313;3050952;-61
2022/06/17 11:53:45;;;;;;;3.30;1.30;;;;;;;27.19;24.20;99391.54;25110;1313;3026444;-62
2022/06/17 11:56:28;;;;;;;3.20;2.10;;;;;;;27.26;24.81;99392.83;25102;1313;3050875;-60
2022/06/17 11:59:01;;;;;;;10.20;2.90;;;;;;;27.33;24.74;99393.35;25133;1313;3071531;-61
2022/06/17 12:01:30;;;;;;;9.00;2.60;;;;;;;27.15;24.94;99390.06;25121;1313;3026471;-60
2022/06/17 12:03:59;;;;;;;4.60;1.80;;;;;;;26.99;24.72;99388.61;25121;1312;3028401;-61
2022/06/17 12:06:30;;;;;;;6.20;2.60;;;;;;;27.03;24.74;99391.82;25027;1313;3070756;-60